Aérodrome :
LOGIN :

S'inscrire | Disclaimer

   EN    FR    IT 

 










Légende :    VFR   VFR Marginal   IFR   IFR Intensif   IFR Très Intensif
Visi : 
Plafond : 
>= 8 km
>= 3000ft
5 à 8 km
1000 à 3000 ft
1500m à 5 km
500 à 1000 ft
800 à 1500m
200 à 500 ft
< 800m
< 200 ft
Symboles :   Orages  Brouillard  Fortes neiges  Fortes précipitations  Vent > 20 kt
SIGMETs :   Divers  Orages  Givrage  Turbulence  Onde Orograph.  Cendres Volcan.







- Altitude de l'aérodrome : 400 ft
- Code IATA : BNX


LQBK - Banja Luka

DERNIER METAR :
  • 281000Z 12005KT CAVOK 32/17 Q1006 NOSIG

METARs EXPIRÉS :
  • 280930Z VRB02KT CAVOK 31/17 Q1006 NOSIG
  • 280900Z VRB03KT CAVOK 31/17 Q1006 NOSIG
  • 280830Z VRB02KT CAVOK 29/17 Q1006 NOSIG
  • 280800Z VRB03KT CAVOK 28/17 Q1006 NOSIG
  • 280730Z VRB03KT CAVOK 27/17 Q1006 NOSIG

TAF TAF LQBK
Valide du 28 à 06h jusqu'au 29 à 06h UTC


280500Z 2806/2906 17005KT CAVOK TX36/2812Z TN20/2904Z
BECMG 2811/2813 23012KT
PROB30
TEMPO 2813/2817 TSRA FEW035CB SCT045
PROB40
TEMPO 2902/2906 22015G25KT TSRA FEW030CB BKN040
Pas de NOTAMs connus pour ce terrain.



MET'MAP, la Météo Aéronautique d'un coup d'oeil ! - Copyright ORBIFLY Décembre 2007 - Disclaimer

ORBIFLY MET'MAP TEAM :

Programmation & Développement : Alexandra Zaïnal
Conception & Développement : Baudouin d'Aumeries
Co-Programmation & Développement : Marc-Olivier Méhu
Soutien technique & logistique : Manuel Goepfert

Contact : metmap@orbifly.com




SOURCES & CREDITS :

   NOAA